This is the latest recevied weather packets stored in our database for station/object DL5DI-H. If no packets are shown the sender has not sent any weather packets the latest 10 day(s).
| Time | Temp. | Humidity | Pressure | Rain* | Wind** | Luminosity | Snow |
|---|---|---|---|---|---|---|---|
| 1788693001 | 21.67° C | 57% | 1027.1 hPa | 0 mm | - | - | - |
| 1788692402 | 21.11° C | 57% | 1027.1 hPa | 0 mm | - | - | - |
| 1788691802 | 20.56° C | 60% | 1027.3 hPa | 0 mm | - | - | - |
| 1788691200 | 20° C | 64% | 1027.4 hPa | 0 mm | - | - | - |
| 1788690600 | 19.44° C | 67% | 1027.6 hPa | 0 mm | - | - | - |
| 1788690002 | 18.89° C | 69% | 1027.7 hPa | 0 mm | - | - | - |
| 1788689403 | 18.33° C | 71% | 1027.9 hPa | 0 mm | - | - | - |
| 1788688802 | 18.33° C | 71% | 1027.9 hPa | 0 mm | - | - | - |
| 1788688202 | 17.22° C | 74% | 1028.2 hPa | 0 mm | - | - | - |
| 1788687600 | 17.22° C | 75% | 1028.2 hPa | 0 mm | - | - | - |
| 1788687033 | 16.67° C | 77% | 1028.2 hPa | 0 mm | - | - | - |
| 1788686402 | 16.11° C | 78% | 1028.3 hPa | 0 mm | - | - | - |
| 1788685801 | 15.56° C | 79% | 1028.3 hPa | 0 mm | - | - | - |
| 1788685202 | 15.56° C | 81% | 1028.4 hPa | 0 mm | - | - | - |
| 1788684601 | 14.44° C | 82% | 1028.5 hPa | 0 mm | - | - | - |
| 1788684002 | 14.44° C | 82% | 1028.5 hPa | 0 mm | - | - | - |
| 1788683430 | 13.89° C | 83% | 1028.6 hPa | 0 mm | - | - | - |
| 1788682800 | 13.89° C | 84% | 1028.5 hPa | 0 mm | - | - | - |
| 1788682201 | 13.33° C | 84% | 1028.6 hPa | 0 mm | - | - | - |
| 1788681600 | 13.33° C | 84% | 1028.6 hPa | 0 mm | - | - | - |
| 1788681001 | 12.78° C | 84% | 1028.5 hPa | 0 mm | - | - | - |
| 1788680402 | 12.78° C | 85% | 1028.3 hPa | 0 mm | - | - | - |
| 1788679800 | 12.22° C | 85% | 1028.2 hPa | 0 mm | - | - | - |
| 1788679200 | 12.22° C | 85% | 1028.1 hPa | 0 mm | - | - | - |
| 1788678601 | 11.67° C | 85% | 1028.3 hPa | 0 mm | - | - | - |
* Rain latest hour (hover to see other rain measurements)
** Current wind speed in m/s (hover to see current wind gust speed)